Have a Safe July 4th! 

Flight Track Log - Related Links

Times and Time Zones

All times are in EDT time to prevent confusion due to time zone crossing. See the GJS3707 flight status page for this flight to view local times or setup timezone preferences in your user account.

Time Position Orientation Groundspeed Altitude Reporting Facility
EDT Latitude Longitude Course Direction KTS MPH feet Rate Location/Type
Thu 03:11:42 PM 43.6003 -116.2822 81° East 198 228 5,200  Level Salt Lake Center
Thu 03:12:44 PM 43.6508 -116.3503 316° Northwest 245 282 6,700 1,597 Climbing Salt Lake Center
Thu 03:13:46 PM 43.7075 -116.4161 320° Northwest 278 320 8,500 1,839 Climbing Salt Lake Center
Thu 03:14:00 PM 43.6534 -115.5398 65° Northeast  Level FlightAware Approximate
Thu 03:14:48 PM 43.7742 -116.3481 36° Northeast 302 348 10,500  Level Salt Lake Center
Thu 03:15:00 PM 43.6738 -115.3699 81° East  Level FlightAware Approximate
Thu 03:15:50 PM 43.7778 -116.2275 88° East 327 376 11,700  Level Salt Lake Center
Thu 03:16:00 PM 43.7036 -115.2015 81° East  Level FlightAware Approximate
Thu 03:16:52 PM 43.7928 -116.0736 82° East 356 410 13,500  Level Salt Lake Center
Thu 03:17:00 PM 43.7228 -115.0287 81° East  Level FlightAware Approximate
Thu 03:17:54 PM 43.8056 -115.9344 83° East 376 433 15,000  Level Salt Lake Center
Thu 03:18:56 PM 43.8206 -115.7675 83° East 392 451 16,600 1,355 Climbing Salt Lake Center
Thu 03:19:58 PM 43.8347 -115.6203 82° East 402 463 17,800 1,355 Climbing Salt Lake Center
Thu 03:21:00 PM 43.8503 -115.4433 83° East 415 478 19,400 1,392 Climbing Salt Lake Center
Thu 03:22:03 PM 43.8642 -115.2889 83° East 423 487 20,700 1,296 Climbing Salt Lake Center
Thu 03:23:05 PM 43.8808 -115.1050 83° East 431 496 22,100 1,306 Climbing Salt Lake Center
Thu 03:24:07 PM 43.8936 -114.9472 84° East 432 497 23,400 1,306 Climbing Salt Lake Center
Thu 03:25:09 PM 43.9086 -114.7586 84° East 439 505 24,800 1,016 Climbing Salt Lake Center
Thu 03:26:11 PM 43.9217 -114.5944 84° East 448 516 25,500 629 Climbing Salt Lake Center
Thu 03:27:13 PM 43.9389 -114.3931 83° East 473 544 26,100 629 Climbing Salt Lake Center
Thu 03:28:15 PM 43.9514 -114.2169 84° East 479 551 26,800 726 Climbing Salt Lake Center
Thu 03:29:17 PM 43.9672 -114.0367 83° East 491 565 27,600 774 Climbing Salt Lake Center
Thu 03:30:19 PM 43.9833 -113.8189 84° East 493 567 28,400 726 Climbing Salt Lake Center
Thu 03:31:21 PM 43.9964 -113.6336 84° East 503 579 29,100 774 Climbing Salt Lake Center
Thu 03:32:23 PM 44.0089 -113.4200 85° East 498 573 30,000 435 Climbing Salt Lake Center
Thu 03:33:25 PM 44.0242 -113.2356 83° East 502 578 30,000  Level Salt Lake Center
Thu 03:34:27 PM 44.0386 -113.0164 85° East 509 586 30,000  Level Salt Lake Center
Thu 03:35:29 PM 44.0500 -112.8292 85° East 509 586 30,000  Level Salt Lake Center
Thu 03:36:31 PM 44.0653 -112.6097 84° East 511 588 30,000  Level Salt Lake Center
Thu 03:37:33 PM 44.0758 -112.4228 85° East 509 586 30,000  Level Salt Lake Center
Thu 03:38:35 PM 44.0864 -112.2342 85° East 512 589 30,000  Level Salt Lake Center
Thu 03:39:37 PM 44.0914 -112.0194 88° East 504 580 30,000 97 Level Salt Lake Center
Thu 03:40:39 PM 44.0919 -111.8322 90° East 506 582 30,200 480 Climbing Salt Lake Center
Thu 03:41:42 PM 44.0939 -111.6150 89° East 506 582 31,000 384 Climbing Salt Lake Center
Thu 03:42:44 PM 44.0933 -111.3969 90° East 509 586 31,000  Level Salt Lake Center
Thu 03:43:46 PM 44.0936 -111.2094 90° East 510 587 31,000  Level Salt Lake Center
Thu 03:44:48 PM 44.0933 -110.9886 90° East 513 590 31,000  Level Salt Lake Center
Thu 03:45:50 PM 44.0939 -110.8000 90° East 512 589 31,000  Level Salt Lake Center
Thu 03:46:52 PM 44.0925 -110.5800 90° East 512 589 31,000  Level Salt Lake Center
Thu 03:47:54 PM 44.0933 -110.3903 90° East 513 590 31,000  Level Salt Lake Center
Thu 03:48:56 PM 44.0914 -110.2039 91° East 508 585 31,000  Level Salt Lake Center
Thu 03:49:58 PM 44.0900 -109.9858 90° East 505 581 31,000  Level Salt Lake Center
Thu 03:51:00 PM 44.0869 -109.7978 91° East 508 585 31,000  Level Salt Lake Center
Thu 03:52:02 PM 44.0856 -109.5803 90° East 505 581 31,000  Level Salt Lake Center
Thu 03:53:04 PM 44.0811 -109.3783 92° East 499 574 31,000  Level Salt Lake Center
Thu 03:54:06 PM 44.0778 -109.1867 91° East 498 573 31,000  Level Salt Lake Center
Thu 03:55:08 PM 44.0739 -108.9922 92° East 504 580 31,000  Level Salt Lake Center
Thu 03:56:10 PM 44.0711 -108.7986 91° East 505 581 31,000  Level Salt Lake Center
Thu 03:57:12 PM 44.0667 -108.6042 92° East 507 583 31,000  Level Salt Lake Center
Thu 03:58:14 PM 44.0614 -108.3700 92° East 509 586 31,000  Level Salt Lake Center
Thu 03:59:16 PM 44.0561 -108.1733 92° East 512 589 31,000  Level Salt Lake Center
Thu 04:00:18 PM 44.0514 -107.9753 92° East 516 594 31,000  Level Salt Lake Center
Thu 04:01:21 PM 44.0453 -107.7764 92° East 518 596 31,000  Level Salt Lake Center
Thu 04:02:23 PM 44.0406 -107.5764 92° East 523 602 31,000  Level Salt Lake Center
Thu 04:03:25 PM 44.0322 -107.3361 93° East 523 602 31,000  Level Salt Lake Center
Thu 04:04:27 PM 44.0247 -107.1383 93° East 519 597 31,000  Level Salt Lake Center
Thu 04:05:29 PM 44.0189 -106.9400 92° East 517 595 31,000  Level Salt Lake Center
Thu 04:06:31 PM 44.0119 -106.7436 93° East 514 592 31,000  Level Salt Lake Center
Thu 04:07:33 PM 44.0047 -106.5453 93° East 515 593 31,000  Level Salt Lake Center
Thu 04:08:35 PM 43.9997 -106.3086 92° East 515 593 31,000  Level Salt Lake Center
Thu 04:09:37 PM 44.0044 -106.1306 88° East 516 594 31,000  Level Salt Lake Center
Thu 04:10:39 PM 44.0058 -105.9061 89° East 519 597 31,000  Level Salt Lake Center
Thu 04:11:40 PM 44.0239 -105.7206 82° East 511 588 31,000  Level Denver Center
Thu 04:12:42 PM 44.0558 -105.5033 78° East 514 592 31,000  Level Denver Center
Thu 04:13:45 PM 44.0844 -105.3147 78° East 517 595 31,000  Level Denver Center
Thu 04:14:47 PM 44.1189 -105.0969 78° East 516 594 31,000  Level Denver Center
Thu 04:15:49 PM 44.1372 -104.9064 82° East 517 595 31,000  Level Denver Center
Thu 04:16:51 PM 44.1589 -104.6856 82° East 516 594 31,000  Level Denver Center
Thu 04:17:53 PM 44.1778 -104.4956 82° East 516 594 31,000  Level Denver Center
Thu 04:19:07 PM 44.2017 -104.2433 82° East 514 592 31,000  Level Denver Center
Thu 04:20:22 PM 44.2200 -103.9908 84° East 515 593 31,000  Level Denver Center
Thu 04:21:24 PM 44.2289 -103.7992 86° East 516 594 31,000  Level Denver Center
Thu 04:22:26 PM 44.2392 -103.6069 86° East 518 596 31,000  Level Denver Center
Thu 04:23:28 PM 44.2508 -103.3844 86° East 516 594 31,000  Level Denver Center
Thu 04:24:30 PM 44.2628 -103.1947 85° East 514 592 31,000  Level Denver Center
Thu 04:25:32 PM 44.2769 -102.9675 85° East 515 593 31,000  Level Denver Center
Thu 04:26:34 PM 44.2869 -102.7669 86° East 518 596 31,000  Level Denver Center
Thu 04:27:36 PM 44.2714 -102.5667 96° East 522 601 31,000  Level Denver Center
Thu 04:28:38 PM 44.2542 -102.3681 97° East 518 596 31,000  Level Denver Center
Thu 04:29:40 PM 44.2375 -102.1697 97° East 518 596 31,000  Level Denver Center
Thu 04:30:42 PM 44.2150 -101.9681 99° East 524 603 31,000  Level Denver Center
Thu 04:31:44 PM 44.1922 -101.7275 97° East 525 604 31,000  Level Denver Center
Thu 04:32:46 PM 44.1747 -101.5306 97° East 519 597 31,000  Level Denver Center
Thu 04:33:48 PM 44.1547 -101.3322 98° East 518 596 31,000  Level Denver Center
Thu 04:34:50 PM 44.1361 -101.1372 98° East 514 592 31,000  Level Denver Center
Thu 04:35:53 PM 44.1172 -100.9422 98° East 511 588 31,000  Level Denver Center
Thu 04:37:14 PM 44.0942 -100.6744 97° East 508 585 31,000  Level Minneapolis Center
Thu 04:38:16 PM 44.0733 -100.4783 98° East 512 589 31,000  Level Minneapolis Center
Thu 04:39:18 PM 44.0503 -100.2447 98° East 512 589 31,000  Level Minneapolis Center
Thu 04:40:32 PM 44.0403 -100.0514 94° East 507 583 31,000  Level Minneapolis Center
Thu 04:41:35 PM 44.0256 -99.8211 95° East 503 579 31,000  Level Minneapolis Center
Thu 04:42:37 PM 44.0117 -99.6306 96° East 500 575 31,000  Level Minneapolis Center
Thu 04:43:39 PM 43.9997 -99.4383 95° East 501 577 31,000  Level Minneapolis Center
Thu 04:44:41 PM 43.9850 -99.2506 96° East 495 570 31,000  Level Minneapolis Center
Thu 04:45:43 PM 43.9692 -99.0217 95° East 498 573 31,000  Level Minneapolis Center
Thu 04:46:45 PM 43.9556 -98.8300 96° East 501 577 31,000  Level Minneapolis Center
Thu 04:47:47 PM 43.9408 -98.6478 96° East 500 575 31,000  Level Minneapolis Center
Thu 04:48:49 PM 43.9267 -98.4553 96° East 501 577 31,000  Level Minneapolis Center
Thu 04:49:51 PM 43.9086 -98.2236 96° East 503 579 31,000  Level Minneapolis Center
Thu 04:50:53 PM 43.8922 -98.0319 97° East 504 580 31,000  Level Minneapolis Center
Thu 04:51:55 PM 43.8775 -97.8403 96° East 502 578 31,000  Level Minneapolis Center
Thu 04:52:57 PM 43.8608 -97.6481 97° East 504 580 31,000  Level Minneapolis Center
Thu 04:53:59 PM 43.8436 -97.4564 97° East 503 579 31,000  Level Minneapolis Center
Thu 04:54:00 PM 43.8435 -97.4637 97° East  Level FlightAware Approximate
Thu 04:55:02 PM 43.8272 -97.2642 97° East 505 581 31,000  Level Minneapolis Center
Thu 04:56:04 PM 43.8067 -97.0344 97° East 505 581 31,000  Level Minneapolis Center
Thu 04:57:06 PM 43.7886 -96.8444 97° East 503 579 31,000  Level Minneapolis Center
Thu 04:58:07 PM 43.7733 -96.6919 98° East 503 579 31,000  Level Minneapolis Center
Thu 04:59:10 PM 43.7517 -96.4647 97° East 503 579 31,000  Level Minneapolis Center
Thu 05:00:12 PM 43.7306 -96.2394 97° East 501 577 31,000  Level Minneapolis Center
Thu 05:01:13 PM 43.7161 -96.0894 98° East 499 574 31,000  Level Minneapolis Center
Thu 05:02:16 PM 43.6947 -95.8683 98° East 491 565 31,000  Level Minneapolis Center
Thu 05:03:30 PM 43.6758 -95.6869 98° East 484 557 31,000  Level Minneapolis Center
Thu 05:04:33 PM 43.6536 -95.4683 98° East 483 556 31,000  Level Minneapolis Center
Thu 05:05:35 PM 43.6303 -95.2472 98° East 488 562 31,000  Level Minneapolis Center
Thu 05:06:36 PM 43.6133 -95.0989 99° East 489 563 31,000  Level Minneapolis Center
Thu 05:07:39 PM 43.5889 -94.8783 99° East 489 563 31,000  Level Minneapolis Center
Thu 05:08:41 PM 43.5681 -94.6986 99° East 478 550 31,000  Level Minneapolis Center
Thu 05:09:43 PM 43.5486 -94.5194 98° East 474 545 31,000  Level Minneapolis Center
Thu 05:10:45 PM 43.5275 -94.3386 99° East 477 549 31,000  Level Minneapolis Center
Thu 05:11:47 PM 43.5050 -94.1494 99° East 480 552 31,000  Level Minneapolis Center
Thu 05:13:01 PM 43.4819 -93.9700 100° East 481 554 31,000  Level Minneapolis Center
Thu 05:14:04 PM 43.4519 -93.7189 99° East 480 552 31,000  Level Minneapolis Center
Thu 05:15:18 PM 43.4264 -93.5031 99° East 480 552 31,000  Level Minneapolis Center
Thu 05:16:20 PM 43.4047 -93.3258 99° East 476 548 31,000  Level Minneapolis Center
Thu 05:17:22 PM 43.3825 -93.1464 100° East 478 550 31,000  Level Minneapolis Center
Thu 05:18:36 PM 43.3553 -92.9328 100° East 478 550 31,000  Level Minneapolis Center
Thu 05:19:39 PM 43.3294 -92.7231 100° East 471 542 31,000  Level Minneapolis Center
Thu 05:20:41 PM 43.3064 -92.5542 101° East 458 527 31,000  Level Minneapolis Center
Thu 05:21:43 PM 43.2850 -92.3881 100° East 448 516 31,000  Level Minneapolis Center
Thu 05:22:45 PM 43.2631 -92.2231 100° East 444 511 31,000  Level Minneapolis Center
Thu 05:23:47 PM 43.2358 -92.0233 101° East 445 512 31,000  Level Minneapolis Center
Thu 05:24:49 PM 43.2142 -91.8542 100° East 449 517 31,000  Level Minneapolis Center
Thu 05:25:51 PM 43.1886 -91.6778 101° East 463 533 31,000  Level Minneapolis Center
Thu 05:26:53 PM 43.1342 -91.5056 113° Southeast 490 564 31,000  Level Minneapolis Center
Thu 05:28:07 PM 43.0756 -91.3367 115° Southeast 493 567 31,000  Level Minneapolis Center
Thu 05:29:10 PM 43.0156 -91.1697 116° Southeast 489 563 31,000  Level Minneapolis Center
Thu 05:30:12 PM 42.9344 -90.9389 116° Southeast 485 558 31,000  Level Minneapolis Center
Thu 05:31:14 PM 42.8764 -90.7756 116° Southeast 482 555 31,000 -41 Level Minneapolis Center
Thu 05:32:39 PM 42.7994 -90.5500 115° Southeast 479 551 30,900 -735 Descending Chicago Center
Thu 05:33:41 PM 42.7414 -90.3889 116° Southeast 478 550 29,200 -1,742 Descending Chicago Center
Thu 05:34:43 PM 42.6844 -90.2347 117° Southeast 462 532 27,300 -1,742 Descending Chicago Center
Thu 05:35:45 PM 42.6278 -90.0786 116° Southeast 464 534 25,600 -1,839 Descending Chicago Center
Thu 05:36:47 PM 42.5650 -89.9053 116° Southeast 464 534 23,500 -2,081 Descending Chicago Center
Thu 05:37:49 PM 42.5142 -89.7200 110° East 457 526 21,300 -2,032 Descending Chicago Center
Thu 05:38:51 PM 42.4967 -89.5575 98° East 441 507 19,300 -1,839 Descending Chicago Center
Thu 05:39:53 PM 42.4786 -89.3975 99° East 433 498 17,500 -1,776 Descending Chicago Center
Thu 05:40:56 PM 42.4614 -89.2475 99° East 409 471 15,600 -1,839 Descending Chicago Center
Thu 05:41:57 PM 42.4456 -89.1075 99° East 381 438 13,700 -2,000 Descending Chicago Center
Thu 05:42:59 PM 42.4278 -88.9525 99° East 362 417 11,500 -1,296 Descending Chicago Center
Thu 05:44:02 PM 42.4131 -88.8256 99° East 347 399 11,000 -528 Descending Chicago Center
Thu 05:45:04 PM 42.4000 -88.7094 99° East 320 368 10,400 -484 Descending Chicago Center
Thu 05:46:06 PM 42.3858 -88.5925 99° East 317 365 10,000 -194 Descending Chicago Center
Thu 05:47:08 PM 42.3700 -88.4808 101° East 307 353 10,000 -435 Level Chicago Center
Thu 05:48:10 PM 42.3239 -88.3642 118° Southeast 304 350 9,100 -823 Descending Chicago Center
Thu 05:49:12 PM 42.2800 -88.2892 128° Southeast 302 348 8,300 -968 Descending Chicago Center
Thu 05:50:14 PM 42.2236 -88.1797 125° Southeast 301 346 7,100 -629 Descending Chicago Center
Thu 05:51:16 PM 42.1906 -88.0806 114° Southeast 292 336 7,000 -48 Descending Chicago Center
Thu 05:52:18 PM 42.1558 -87.9814 115° Southeast 294 338 7,000  Level Chicago Center
Thu 05:53:20 PM 42.1531 -87.8703 92° East 299 344 7,000  Level Chicago Center
Thu 05:54:22 PM 42.1347 -87.7633 103° East 294 338 7,000 -528 Level Chicago Center
Thu 05:55:25 PM 42.1122 -87.6342 103° East 297 342 5,900 -1,008 Descending Chicago Center
Thu 05:56:27 PM 42.0950 -87.5322 103° East 284 327 4,900 -919 Descending Chicago Center
Thu 05:57:29 PM 42.0511 -87.4592 129° Southeast 281 323 4,000 -435 Descending Chicago Center
Thu 05:58:31 PM 42.0058 -87.5064 218° Southwest 243 280 4,000  Level Chicago Center
Thu 05:59:33 PM 42.0008 -87.5856 265° West 218 251 4,000 -48 Level Chicago Center
Thu 06:00:35 PM 42.0039 -87.6775 273° West 213 245 3,900 -532 Descending Chicago Center
Thu 06:01:37 PM 42.0036 -87.7433 270° West 199 229 2,900 -919 Descending Chicago Center
Thu 06:02:39 PM 42.0031 -87.8072 269° West 185 213 2,000 -774 Descending Chicago Center
Thu 06:03:41 PM 42.0036 -87.8603 271° West 168 193 1,300 -677 Descending Chicago Center

Login

Don't have an account? Register now (free) for customized features, flight alerts, and more!